createdAt,value
2022-09-28T00:00:05.486Z,98626.28
2022-09-28T00:02:41.939Z,98616.91
2022-09-28T00:05:12.755Z,98619.66
2022-09-28T00:07:45.025Z,98619.66
2022-09-28T00:10:14.546Z,98628.69
2022-09-28T00:12:44.110Z,98629.63
2022-09-28T00:15:13.784Z,98620.81
2022-09-28T00:17:44.724Z,98622.38
2022-09-28T00:20:14.418Z,98627.00
2022-09-28T00:22:46.582Z,98618.25
2022-09-28T00:25:16.899Z,98615.56
2022-09-28T00:27:46.585Z,98610.38
2022-09-28T00:30:16.469Z,98611.22
2022-09-28T00:32:46.749Z,98611.34
2022-09-28T00:35:16.589Z,98602.44
2022-09-28T00:37:48.886Z,98604.19
2022-09-28T00:40:18.665Z,98609.34
2022-09-28T00:42:48.246Z,98608.53
2022-09-28T00:45:18.295Z,98603.88
2022-09-28T00:47:50.973Z,98604.00
2022-09-28T00:50:24.755Z,98603.88
2022-09-28T00:53:00.161Z,98602.09
2022-09-28T00:55:35.184Z,98601.47
2022-09-28T00:58:07.056Z,98603.16
2022-09-28T01:00:36.665Z,98597.34
2022-09-28T01:03:06.798Z,98595.09
2022-09-28T01:05:38.245Z,98598.66
2022-09-28T01:08:10.549Z,98591.84
2022-09-28T01:10:43.142Z,98586.38
2022-09-28T01:13:12.945Z,98588.28
2022-09-28T01:15:45.765Z,98584.69
2022-09-28T01:18:23.714Z,98584.81
2022-09-28T01:21:03.927Z,98582.91
2022-09-28T01:24:01.233Z,98585.53
2022-09-28T01:26:45.596Z,98587.44
2022-09-28T01:29:20.248Z,98591.94
2022-09-28T01:31:54.371Z,98585.97
2022-09-28T01:34:28.080Z,98585.31
2022-09-28T01:36:59.297Z,98582.78
2022-09-28T01:39:33.241Z,98583.84
2022-09-28T01:42:08.863Z,98571.44
2022-09-28T01:44:40.073Z,98578.59
2022-09-28T01:47:14.785Z,98575.97
2022-09-28T01:49:46.772Z,98579.44
2022-09-28T01:52:19.020Z,98576.16
2022-09-28T01:54:52.689Z,98576.88
2022-09-28T01:57:28.584Z,98583.00
2022-09-28T02:00:03.312Z,98579.50
2022-09-28T02:02:48.340Z,98577.94
2022-09-28T02:05:24.356Z,98575.31
2022-09-28T02:07:59.694Z,98582.25
2022-09-28T02:10:32.092Z,98575.31
2022-09-28T02:13:06.256Z,98577.81
2022-09-28T02:15:40.347Z,98576.88
2022-09-28T02:18:10.113Z,98576.88
2022-09-28T02:20:41.783Z,98581.41
2022-09-28T02:23:11.724Z,98583.19
2022-09-28T02:25:47.544Z,98582.25
2022-09-28T02:28:20.520Z,98584.97
2022-09-28T02:30:50.228Z,98578.88
2022-09-28T02:33:23.383Z,98587.19
2022-09-28T02:35:53.441Z,98576.81
2022-09-28T02:38:25.621Z,98573.22
2022-09-28T02:41:03.488Z,98579.22
2022-09-28T02:43:46.602Z,98581.09
2022-09-28T02:46:20.538Z,98582.91
2022-09-28T02:49:20.456Z,98582.78
2022-09-28T02:52:01.192Z,98589.72
2022-09-28T02:54:51.156Z,98594.03
2022-09-28T02:57:31.883Z,98587.81
2022-09-28T03:00:08.668Z,98597.50
2022-09-28T03:02:44.888Z,98587.81
2022-09-28T03:05:18.353Z,98590.34
2022-09-28T03:07:52.987Z,98589.50
2022-09-28T03:10:28.562Z,98590.34
2022-09-28T03:12:58.789Z,98589.50
2022-09-28T03:15:32.866Z,98587.72
2022-09-28T03:18:03.292Z,98585.09
2022-09-28T03:20:34.139Z,98587.00
2022-09-28T03:23:24.731Z,98585.19
2022-09-28T03:25:54.830Z,98585.31
2022-09-28T03:28:24.424Z,98587.09
2022-09-28T03:30:57.462Z,98581.84
2022-09-28T03:33:27.007Z,98585.41
2022-09-28T03:35:56.853Z,98583.00
2022-09-28T03:38:26.706Z,98587.31
2022-09-28T03:40:57.512Z,98589.09
2022-09-28T03:43:28.295Z,98586.38
2022-09-28T03:46:04.275Z,98585.53
2022-09-28T03:48:38.780Z,98588.03
2022-09-28T03:51:09.864Z,98584.47
2022-09-28T03:53:41.678Z,98586.25
2022-09-28T03:56:14.565Z,98592.25
2022-09-28T03:58:45.089Z,98588.78
2022-09-28T04:01:18.768Z,98592.97
2022-09-28T04:03:50.165Z,98586.88
2022-09-28T04:06:20.549Z,98589.63
2022-09-28T04:08:50.137Z,98589.72
2022-09-28T04:11:20.330Z,98594.03
2022-09-28T04:13:51.582Z,98593.28
2022-09-28T04:16:23.897Z,98602.00
2022-09-28T04:19:04.250Z,98595.19
2022-09-28T04:21:34.059Z,98598.66
2022-09-28T04:24:10.964Z,98602.13
2022-09-28T04:26:41.066Z,98601.47
2022-09-28T04:29:19.095Z,98605.88
2022-09-28T04:32:01.438Z,98604.09
2022-09-28T04:34:43.745Z,98603.25
2022-09-28T04:37:14.979Z,98603.25
2022-09-28T04:39:48.249Z,98604.94
2022-09-28T04:42:20.689Z,98606.72
2022-09-28T04:44:52.924Z,98610.19
2022-09-28T04:47:25.125Z,98604.09
2022-09-28T04:50:14.953Z,98604.19
2022-09-28T04:53:03.700Z,98604.19
2022-09-28T04:55:33.333Z,98601.28
2022-09-28T04:58:03.560Z,98595.19
2022-09-28T05:00:35.662Z,98592.56
2022-09-28T05:03:17.752Z,98592.47
2022-09-28T05:06:06.934Z,98594.97
2022-09-28T05:08:46.757Z,98600.22
2022-09-28T05:11:18.324Z,98607.28
2022-09-28T05:13:48.899Z,98603.59
2022-09-28T05:16:20.544Z,98603.06
2022-09-28T05:19:16.024Z,98611.69
2022-09-28T05:21:48.855Z,98608.22
2022-09-28T05:24:18.511Z,98605.47
2022-09-28T05:26:53.465Z,98609.69
2022-09-28T05:29:23.152Z,98606.22
2022-09-28T05:32:11.554Z,98610.63
2022-09-28T05:34:46.559Z,98600.78
2022-09-28T05:37:22.214Z,98599.84
2022-09-28T05:39:51.849Z,98595.53
2022-09-28T05:42:21.468Z,98602.56
2022-09-28T05:44:52.140Z,98594.75
2022-09-28T05:47:22.178Z,98595.59
2022-09-28T05:49:55.770Z,98597.31
2022-09-28T05:52:25.789Z,98596.38
2022-09-28T05:54:57.083Z,98593.63
2022-09-28T05:57:26.730Z,98595.41
2022-09-28T05:59:56.437Z,98599.63
2022-09-28T06:02:26.157Z,98596.03
2022-09-28T06:04:58.894Z,98600.00
2022-09-28T06:07:28.541Z,98596.25
2022-09-28T06:09:58.128Z,98598.16
2022-09-28T06:12:41.306Z,98606.22
2022-09-28T06:15:17.413Z,98606.03
2022-09-28T06:17:48.351Z,98604.88
2022-09-28T06:20:41.052Z,98606.75
2022-09-28T06:23:20.700Z,98610.97
2022-09-28T06:25:50.390Z,98617.91
2022-09-28T06:28:20.074Z,98617.16
2022-09-28T06:30:49.822Z,98619.69
2022-09-28T06:33:21.991Z,98623.16
2022-09-28T06:35:54.149Z,98626.84
2022-09-28T06:38:23.779Z,98631.88
2022-09-28T06:40:53.661Z,98625.69
2022-09-28T06:43:23.492Z,98635.44
2022-09-28T06:46:25.697Z,98636.97
2022-09-28T06:49:27.102Z,98639.50
2022-09-28T06:52:18.129Z,98644.66
2022-09-28T06:55:10.276Z,98646.53
2022-09-28T06:57:47.133Z,98650.13
2022-09-28T07:00:18.592Z,98651.78
2022-09-28T07:02:49.798Z,98654.41
2022-09-28T07:05:43.816Z,98652.53
2022-09-28T07:08:34.748Z,98661.97
2022-09-28T07:11:26.989Z,98669.13
2022-09-28T07:14:24.705Z,98667.16
2022-09-28T07:17:13.051Z,98669.03
2022-09-28T07:19:44.671Z,98664.81
2022-09-28T07:22:18.833Z,98672.72
2022-09-28T07:24:52.289Z,98667.44
2022-09-28T07:27:40.679Z,98675.44
2022-09-28T07:30:35.562Z,98678.81
2022-09-28T07:33:11.013Z,98680.59
2022-09-28T07:35:58.010Z,98681.63
2022-09-28T07:38:32.086Z,98682.47
2022-09-28T07:41:22.384Z,98683.31
2022-09-28T07:43:55.450Z,98688.56
2022-09-28T07:46:25.084Z,98702.44
2022-09-28T07:49:00.141Z,98706.88
2022-09-28T07:51:56.416Z,98709.38
2022-09-28T07:54:31.761Z,98709.22
2022-09-28T07:57:28.887Z,98707.94
2022-09-28T08:00:24.928Z,98713.84
2022-09-28T08:02:55.042Z,98718.38
2022-09-28T08:05:27.061Z,98713.13
2022-09-28T08:07:58.482Z,98726.44
2022-09-28T08:10:30.049Z,98724.16
2022-09-28T08:13:28.545Z,98724.38
2022-09-28T08:16:16.897Z,98731.31
2022-09-28T08:18:54.129Z,98726.91
2022-09-28T08:21:36.939Z,98728.69
2022-09-28T08:24:06.891Z,98731.09
2022-09-28T08:26:36.701Z,98735.34
2022-09-28T08:29:08.974Z,98734.50
2022-09-28T08:32:01.728Z,98729.66
2022-09-28T08:34:52.264Z,98739.53
2022-09-28T08:37:40.174Z,98729.56
2022-09-28T08:40:28.876Z,98734.72
2022-09-28T08:43:27.043Z,98746.81
2022-09-28T08:46:06.187Z,98756.38
2022-09-28T08:49:20.633Z,98753.66
2022-09-28T08:52:23.527Z,98755.88
2022-09-28T08:55:31.504Z,98759.41
2022-09-28T08:58:05.952Z,98762.31
2022-09-28T09:00:41.673Z,98764.16
2022-09-28T09:03:17.533Z,98772.81
2022-09-28T09:06:00.450Z,98772.72
2022-09-28T09:09:00.144Z,98769.13
2022-09-28T09:11:50.104Z,98780.94
2022-09-28T09:14:40.300Z,98782.13
2022-09-28T09:17:18.818Z,98784.81
2022-09-28T09:20:21.645Z,98787.00
2022-09-28T09:23:18.494Z,98782.41
2022-09-28T09:25:54.833Z,98790.81
2022-09-28T09:28:38.322Z,98794.81
2022-09-28T09:31:22.415Z,98791.13
2022-09-28T09:34:37.565Z,98793.16
2022-09-28T09:37:58.516Z,98794.75
2022-09-28T09:40:57.255Z,98796.53
2022-09-28T09:44:07.780Z,98795.28
2022-09-28T09:47:07.839Z,98797.47
2022-09-28T09:49:51.569Z,98795.06
2022-09-28T09:52:25.118Z,98798.84
2022-09-28T09:55:02.244Z,98804.84
2022-09-28T09:57:57.011Z,98802.34
2022-09-28T10:00:43.829Z,98801.50
2022-09-28T10:03:26.714Z,98805.38
2022-09-28T10:06:03.037Z,98804.31
2022-09-28T10:08:34.129Z,98802.03
2022-09-28T10:11:11.325Z,98804.53
2022-09-28T10:13:44.667Z,98808.03
2022-09-28T10:16:34.413Z,98799.28
2022-09-28T10:19:07.346Z,98801.69
2022-09-28T10:21:58.604Z,98808.94
2022-09-28T10:24:34.277Z,98807.78
2022-09-28T10:27:10.708Z,98801.88
2022-09-28T10:29:47.311Z,98812.22
2022-09-28T10:32:23.051Z,98812.09
2022-09-28T10:34:55.833Z,98811.16
2022-09-28T10:37:31.355Z,98813.47
2022-09-28T10:40:30.361Z,98811.59
2022-09-28T10:43:09.461Z,98817.59
2022-09-28T10:45:40.308Z,98813.56
2022-09-28T10:48:18.130Z,98812.88
2022-09-28T10:51:00.552Z,98820.00
2022-09-28T10:53:30.665Z,98819.09
2022-09-28T10:56:22.616Z,98818.66
2022-09-28T10:59:01.743Z,98820.88
2022-09-28T11:01:46.598Z,98819.78
2022-09-28T11:04:23.736Z,98817.78
2022-09-28T11:06:54.582Z,98820.41
2022-09-28T11:09:31.088Z,98821.38
2022-09-28T11:12:07.819Z,98817.78
2022-09-28T11:14:43.700Z,98814.59
2022-09-28T11:17:27.275Z,98809.66
2022-09-28T11:19:57.551Z,98812.56
2022-09-28T11:22:31.546Z,98807.28
2022-09-28T11:25:23.663Z,98814.38
2022-09-28T11:28:04.334Z,98810.63
2022-09-28T11:30:41.619Z,98804.63
2022-09-28T11:33:28.226Z,98812.03
2022-09-28T11:36:31.670Z,98818.25
2022-09-28T11:39:08.648Z,98819.84
2022-09-28T11:41:53.885Z,98825.13
2022-09-28T11:44:35.228Z,98820.47
2022-09-28T11:47:44.196Z,98823.94
2022-09-28T11:50:24.549Z,98827.03
2022-09-28T11:53:00.327Z,98824.28
2022-09-28T11:55:34.472Z,98823.53
2022-09-28T11:58:08.914Z,98825.13
2022-09-28T12:00:42.213Z,98820.91
2022-09-28T12:03:17.282Z,98823.41
2022-09-28T12:05:50.532Z,98826.19
2022-09-28T12:08:25.491Z,98824.38
2022-09-28T12:11:12.481Z,98822.50
2022-09-28T12:14:03.858Z,98831.00
2022-09-28T12:17:03.991Z,98826.56
2022-09-28T12:19:33.800Z,98824.56
2022-09-28T12:22:07.059Z,98823.59
2022-09-28T12:24:40.432Z,98821.19
2022-09-28T12:27:14.628Z,98820.22
2022-09-28T12:29:47.518Z,98813.25
2022-09-28T12:32:25.014Z,98812.31
2022-09-28T12:34:57.237Z,98806.19
2022-09-28T12:37:36.992Z,98813.91
2022-09-28T12:40:27.050Z,98814.28
2022-09-28T12:43:29.029Z,98803.72
2022-09-28T12:46:24.289Z,98797.25
2022-09-28T12:50:13.764Z,98803.16
2022-09-28T12:52:20.329Z,98805.66
2022-09-28T12:55:06.565Z,98803.50
2022-09-28T12:57:42.975Z,98800.88
2022-09-28T13:00:15.391Z,98802.44
2022-09-28T13:03:06.041Z,98806.66
2022-09-28T13:05:52.404Z,98807.16
2022-09-28T13:08:29.669Z,98809.31
2022-09-28T13:11:08.006Z,98804.78
2022-09-28T13:13:45.597Z,98807.28
2022-09-28T13:16:19.259Z,98806.09
2022-09-28T13:18:52.156Z,98808.25
2022-09-28T13:21:28.362Z,98807.09
2022-09-28T13:24:20.943Z,98814.88
2022-09-28T13:26:57.125Z,98812.25
2022-09-28T13:29:27.400Z,98802.53
2022-09-28T13:31:58.933Z,98803.09
2022-09-28T13:34:30.120Z,98794.03
2022-09-28T13:37:21.691Z,98788.28
2022-09-28T13:39:56.512Z,98781.78
2022-09-28T13:42:30.596Z,98783.34
2022-09-28T13:45:11.907Z,98784.41
2022-09-28T13:47:57.659Z,98784.53
2022-09-28T13:50:34.347Z,98787.31
2022-09-28T13:53:11.304Z,98789.25
2022-09-28T13:55:53.906Z,98788.63
2022-09-28T13:58:27.385Z,98789.72
2022-09-28T14:01:03.141Z,98802.22
2022-09-28T14:03:47.171Z,98799.81
2022-09-28T14:06:28.454Z,98800.06
2022-09-28T14:09:42.851Z,98797.63
2022-09-28T14:12:46.176Z,98803.88
2022-09-28T14:15:44.640Z,98805.94
2022-09-28T14:18:23.472Z,98803.41
2022-09-28T14:21:14.347Z,98806.28
2022-09-28T14:23:59.083Z,98805.44
2022-09-28T14:26:53.702Z,98811.81
2022-09-28T14:29:33.206Z,98812.06
2022-09-28T14:32:07.706Z,98807.72
2022-09-28T14:34:39.211Z,98808.47
2022-09-28T14:37:34.624Z,98811.22
2022-09-28T14:40:24.782Z,98807.63
2022-09-28T14:43:26.996Z,98820.00
2022-09-28T14:46:26.440Z,98819.50
2022-09-28T14:49:01.741Z,98822.34
2022-09-28T14:51:47.035Z,98830.63
2022-09-28T14:54:20.296Z,98820.38
2022-09-28T14:56:59.834Z,98821.59
2022-09-28T14:59:32.288Z,98824.47
2022-09-28T15:02:03.554Z,98822.28
2022-09-28T15:04:39.048Z,98828.75
2022-09-28T15:07:08.784Z,98821.91
2022-09-28T15:09:40.003Z,98823.97
2022-09-28T15:12:18.049Z,98826.81
2022-09-28T15:14:51.377Z,98828.09
2022-09-28T15:17:23.945Z,98838.06
2022-09-28T15:20:10.986Z,98834.06
2022-09-28T15:22:42.335Z,98842.34
2022-09-28T15:25:16.840Z,98850.00
2022-09-28T15:27:47.374Z,98851.84
2022-09-28T15:30:25.407Z,98854.72
2022-09-28T15:32:56.895Z,98852.63
2022-09-28T15:35:27.581Z,98852.13
2022-09-28T15:37:57.890Z,98860.28
2022-09-28T15:40:34.311Z,98856.88
2022-09-28T15:43:04.045Z,98854.47
2022-09-28T15:45:37.736Z,98861.66
2022-09-28T15:48:22.340Z,98867.06
2022-09-28T15:51:10.907Z,98862.38
2022-09-28T15:53:45.978Z,98867.78
2022-09-28T15:56:15.712Z,98863.78
2022-09-28T15:58:46.532Z,98869.06
2022-09-28T16:01:36.270Z,98863.88
2022-09-28T16:04:40.640Z,98862.94
2022-09-28T16:07:27.583Z,98867.38
2022-09-28T16:10:06.467Z,98870.00
2022-09-28T16:12:48.083Z,98883.06
2022-09-28T16:15:21.614Z,98883.72
2022-09-28T16:17:56.229Z,98887.91
2022-09-28T16:20:32.083Z,98883.38
2022-09-28T16:23:11.010Z,98881.56
2022-09-28T16:25:40.976Z,98880.63
2022-09-28T16:28:31.359Z,98885.81
2022-09-28T16:31:04.713Z,98902.78
2022-09-28T16:33:43.722Z,98914.53
2022-09-28T16:36:15.571Z,98902.72
2022-09-28T16:38:49.333Z,98903.75
2022-09-28T16:41:22.197Z,98910.22
2022-09-28T16:43:59.153Z,98901.47
2022-09-28T16:46:36.292Z,98908.66
2022-09-28T16:49:06.860Z,98914.25
2022-09-28T16:51:40.058Z,98919.09
2022-09-28T16:54:29.512Z,98916.34
2022-09-28T16:56:59.126Z,98915.50
2022-09-28T16:59:28.673Z,98923.53
2022-09-28T17:01:59.065Z,98923.94
2022-09-28T17:04:29.201Z,98926.50
2022-09-28T17:06:59.293Z,98929.22
2022-09-28T17:09:31.647Z,98931.97
2022-09-28T17:12:01.310Z,98933.13
2022-09-28T17:14:32.804Z,98930.09
2022-09-28T17:19:53.098Z,98942.53
2022-09-28T17:22:22.638Z,98947.81
2022-09-28T17:24:54.828Z,98952.22
2022-09-28T17:27:24.602Z,98950.72
2022-09-28T17:29:54.148Z,98949.78
2022-09-28T17:32:23.755Z,98953.16
2022-09-28T17:35:06.430Z,98946.84
2022-09-28T17:37:43.330Z,98949.47
2022-09-28T17:40:24.341Z,98954.63
2022-09-28T17:42:56.102Z,98959.06
2022-09-28T17:45:26.958Z,98952.97
2022-09-28T17:47:57.328Z,98955.59
2022-09-28T17:50:29.430Z,98959.06
2022-09-28T17:53:02.773Z,98953.16
2022-09-28T17:55:36.694Z,98951.56
2022-09-28T17:58:17.189Z,98949.97
2022-09-28T18:00:47.825Z,98946.59
2022-09-28T18:03:19.899Z,98952.28
2022-09-28T18:05:50.956Z,98954.09
2022-09-28T18:08:22.067Z,98953.44
2022-09-28T18:10:54.956Z,98957.66
2022-09-28T18:13:24.644Z,98954.78
2022-09-28T18:15:54.735Z,98953.94
2022-09-28T18:18:24.593Z,98952.38
2022-09-28T18:20:54.153Z,98948.16
2022-09-28T18:23:23.740Z,98959.22
2022-09-28T18:25:55.970Z,98955.81
2022-09-28T18:28:25.715Z,98951.59
2022-09-28T18:30:55.297Z,98956.13
2022-09-28T18:33:24.896Z,98957.53
2022-09-28T18:35:55.053Z,98958.78
2022-09-28T18:38:24.609Z,98954.75
2022-09-28T18:40:57.168Z,98958.53
2022-09-28T18:43:26.847Z,98960.06
2022-09-28T18:45:56.548Z,98961.03
2022-09-28T18:48:27.966Z,98964.91
2022-09-28T18:50:57.525Z,98966.88
2022-09-28T18:53:27.384Z,98957.31
2022-09-28T18:56:00.228Z,98966.38
2022-09-28T18:58:29.890Z,98957.91
2022-09-28T19:01:13.713Z,98970.63
2022-09-28T19:03:49.080Z,98976.09
2022-09-28T19:06:19.076Z,98967.53
2022-09-28T19:08:55.673Z,98968.88
2022-09-28T19:11:28.568Z,98967.50
2022-09-28T19:13:58.956Z,98971.13
2022-09-28T19:16:30.003Z,98974.72
2022-09-28T19:19:00.946Z,98970.31
2022-09-28T19:21:30.614Z,98972.56
2022-09-28T19:24:02.916Z,98970.88
2022-09-28T19:26:35.540Z,98975.31
2022-09-28T19:29:05.124Z,98982.47
2022-09-28T19:31:35.103Z,98987.03
2022-09-28T19:34:04.649Z,98987.03
2022-09-28T19:36:34.523Z,98996.09
2022-09-28T19:39:07.088Z,98992.59
2022-09-28T19:41:49.535Z,99002.28
2022-09-28T19:44:24.851Z,98993.44
2022-09-28T19:46:55.818Z,98994.50
2022-09-28T19:49:26.444Z,99000.50
2022-09-28T19:52:15.078Z,99001.34
2022-09-28T19:54:52.121Z,99007.72
2022-09-28T19:57:24.837Z,99013.91
2022-09-28T19:59:59.273Z,99011.88
2022-09-28T20:02:35.539Z,99015.53
2022-09-28T20:05:05.142Z,99020.97
2022-09-28T20:07:36.117Z,99028.22
2022-09-28T20:10:06.166Z,99029.41
2022-09-28T20:12:38.403Z,99027.84
2022-09-28T20:15:10.160Z,99024.38
2022-09-28T20:17:39.779Z,99027.91
2022-09-28T20:20:10.111Z,99034.31
2022-09-28T20:22:40.186Z,99030.94
2022-09-28T20:25:10.321Z,99025.94
2022-09-28T20:27:42.424Z,99037.41
2022-09-28T20:30:13.683Z,99039.38
2022-09-28T20:32:48.740Z,99040.22
2022-09-28T20:35:30.313Z,99037.84
2022-09-28T20:38:08.045Z,99038.06
2022-09-28T20:40:37.783Z,99039.06
2022-09-28T20:43:10.406Z,99031.38
2022-09-28T20:45:40.005Z,99030.63
2022-09-28T20:48:09.772Z,99021.97
2022-09-28T20:50:40.693Z,99025.63
2022-09-28T20:53:10.230Z,99027.63
2022-09-28T20:55:39.852Z,99034.88
2022-09-28T20:58:11.974Z,99034.97
2022-09-28T21:00:41.723Z,99039.47
2022-09-28T21:03:11.432Z,99036.06
2022-09-28T21:05:41.087Z,99037.97
2022-09-28T21:08:10.604Z,99045.84
2022-09-28T21:10:40.120Z,99042.56
2022-09-28T21:13:12.390Z,99046.13
2022-09-28T21:15:42.112Z,99050.69
2022-09-28T21:18:11.725Z,99041.97
2022-09-28T21:20:46.975Z,99042.06
2022-09-28T21:23:16.645Z,99045.63
2022-09-28T21:25:47.508Z,99049.94
2022-09-28T21:28:20.204Z,99045.63
2022-09-28T21:30:49.796Z,99044.69
2022-09-28T21:33:19.372Z,99045.63
2022-09-28T21:35:48.893Z,99053.50
2022-09-28T21:38:18.411Z,99052.47
2022-09-28T21:40:48.516Z,99047.03
2022-09-28T21:43:20.784Z,99056.88
2022-09-28T21:45:52.161Z,99048.16
2022-09-28T21:48:22.226Z,99057.81
2022-09-28T21:50:59.151Z,99055.34
2022-09-28T21:53:31.665Z,99049.56
2022-09-28T21:56:02.017Z,99051.50
2022-09-28T21:58:35.573Z,99053.38
2022-09-28T22:01:06.899Z,99049.16
2022-09-28T22:03:38.188Z,99042.94
2022-09-28T22:06:09.018Z,99051.69
2022-09-28T22:08:39.126Z,99054.31
2022-09-28T22:11:11.002Z,99059.66
2022-09-28T22:13:45.554Z,99058.47
2022-09-28T22:16:16.767Z,99053.66
2022-09-28T22:18:46.931Z,99057.38
2022-09-28T22:21:18.505Z,99060.09
2022-09-28T22:23:48.399Z,99060.75
2022-09-28T22:26:20.693Z,99064.81
2022-09-28T22:28:54.259Z,99067.44
2022-09-28T22:31:25.799Z,99059.81
2022-09-28T22:33:55.725Z,99064.50
2022-09-28T22:36:25.924Z,99063.75
2022-09-28T22:38:56.872Z,99058.75
2022-09-28T22:41:26.964Z,99064.94
2022-09-28T22:43:59.204Z,99069.44
2022-09-28T22:46:31.862Z,99072.22
2022-09-28T22:49:02.099Z,99067.13
2022-09-28T22:51:32.699Z,99064.59
2022-09-28T22:54:02.278Z,99069.06
2022-09-28T22:56:32.075Z,99069.25
2022-09-28T22:59:04.520Z,99071.13
2022-09-28T23:01:34.075Z,99069.44
2022-09-28T23:04:04.235Z,99062.56
2022-09-28T23:06:33.770Z,99069.78
2022-09-28T23:09:03.587Z,99070.72
2022-09-28T23:11:33.208Z,99062.84
2022-09-28T23:14:05.869Z,99065.56
2022-09-28T23:16:35.419Z,99069.25
2022-09-28T23:19:05.067Z,99066.88
2022-09-28T23:21:34.621Z,99060.13
2022-09-28T23:24:04.752Z,99063.69
2022-09-28T23:26:36.977Z,99060.38
2022-09-28T23:29:09.178Z,99069.25
2022-09-28T23:31:38.827Z,99068.50
2022-09-28T23:34:09.448Z,99074.78
2022-09-28T23:36:38.980Z,99065.38
2022-09-28T23:39:08.515Z,99072.63
2022-09-28T23:41:38.146Z,99066.72
2022-09-28T23:44:10.267Z,99064.28
2022-09-28T23:46:39.911Z,99066.09
2022-09-28T23:49:09.611Z,99068.81
2022-09-28T23:51:39.136Z,99062.81
2022-09-28T23:54:08.896Z,99070.81
2022-09-28T23:56:38.494Z,99069.41
2022-09-28T23:59:10.661Z,99061.63
